createdAt,value
2022-10-13T00:00:47.975Z,101850.91
2022-10-13T00:03:14.614Z,101838.63
2022-10-13T00:05:49.804Z,101842.16
2022-10-13T00:08:19.862Z,101843.00
2022-10-13T00:10:48.317Z,101837.69
2022-10-13T00:13:15.392Z,101834.16
2022-10-13T00:15:44.588Z,101834.22
2022-10-13T00:18:11.387Z,101836.88
2022-10-13T00:20:42.616Z,101832.53
2022-10-13T00:23:08.964Z,101836.13
2022-10-13T00:25:35.327Z,101838.69
2022-10-13T00:28:05.340Z,101827.25
2022-10-13T00:30:38.067Z,101829.97
2022-10-13T00:33:11.481Z,101818.47
2022-10-13T00:35:50.178Z,101829.13
2022-10-13T00:38:18.862Z,101822.97
2022-10-13T00:40:53.851Z,101817.66
2022-10-13T00:43:26.596Z,101823.84
2022-10-13T00:45:54.387Z,101823.84
2022-10-13T00:48:32.789Z,101817.69
2022-10-13T00:51:03.774Z,101808.78
2022-10-13T00:53:34.539Z,101811.50
2022-10-13T00:56:05.666Z,101818.56
2022-10-13T00:58:36.372Z,101806.22
2022-10-13T01:01:04.944Z,101819.47
2022-10-13T01:03:31.954Z,101819.47
2022-10-13T01:06:01.283Z,101826.53
2022-10-13T01:08:29.360Z,101823.03
2022-10-13T01:11:01.783Z,101826.56
2022-10-13T01:13:39.884Z,101816.03
2022-10-13T01:16:16.746Z,101821.34
2022-10-13T01:18:57.210Z,101813.41
2022-10-13T01:21:29.447Z,101821.34
2022-10-13T01:24:16.326Z,101822.19
2022-10-13T01:27:03.982Z,101813.38
2022-10-13T01:30:01.285Z,101816.91
2022-10-13T01:32:45.618Z,101814.22
2022-10-13T01:35:19.639Z,101815.97
2022-10-13T01:37:54.801Z,101811.59
2022-10-13T01:40:24.333Z,101806.31
2022-10-13T01:42:56.522Z,101799.28
2022-10-13T01:45:30.431Z,101808.09
2022-10-13T01:48:01.985Z,101806.38
2022-10-13T01:50:28.522Z,101797.63
2022-10-13T01:53:00.862Z,101788.88
2022-10-13T01:55:28.553Z,101797.72
2022-10-13T01:57:55.624Z,101780.13
2022-10-13T02:00:22.794Z,101755.56
2022-10-13T02:03:09.323Z,101764.41
2022-10-13T02:06:15.444Z,101743.34
2022-10-13T02:08:56.061Z,101754.78
2022-10-13T02:11:23.903Z,101766.22
2022-10-13T02:14:08.130Z,101772.44
2022-10-13T02:16:38.567Z,101776.84
2022-10-13T02:19:07.374Z,101781.28
2022-10-13T02:21:35.168Z,101782.16
2022-10-13T02:24:05.581Z,101782.09
2022-10-13T02:26:33.535Z,101784.75
2022-10-13T02:29:00.523Z,101787.34
2022-10-13T02:31:26.873Z,101776.72
2022-10-13T02:33:53.198Z,101777.56
2022-10-13T02:36:19.614Z,101767.00
2022-10-13T02:38:48.926Z,101752.91
2022-10-13T02:41:15.258Z,101742.34
2022-10-13T02:43:41.602Z,101733.56
2022-10-13T02:46:07.958Z,101710.72
2022-10-13T02:48:34.384Z,101716.91
2022-10-13T02:51:00.875Z,101696.69
2022-10-13T02:53:27.221Z,101725.75
2022-10-13T02:55:53.541Z,101738.09
2022-10-13T02:58:20.049Z,101724.88
2022-10-13T03:00:46.485Z,101734.56
2022-10-13T03:03:13.231Z,101754.75
2022-10-13T03:05:39.556Z,101743.25
2022-10-13T03:08:06.417Z,101751.16
2022-10-13T03:10:33.050Z,101751.13
2022-10-13T03:12:59.446Z,101735.25
2022-10-13T03:15:25.977Z,101725.53
2022-10-13T03:17:52.377Z,101727.28
2022-10-13T03:20:18.933Z,101736.13
2022-10-13T03:22:49.547Z,101736.13
2022-10-13T03:25:16.485Z,101729.09
2022-10-13T03:27:48.939Z,101727.28
2022-10-13T03:30:15.362Z,101719.41
2022-10-13T03:32:42.926Z,101719.41
2022-10-13T03:35:12.059Z,101717.66
2022-10-13T03:37:38.501Z,101717.63
2022-10-13T03:40:05.463Z,101699.16
2022-10-13T03:42:31.876Z,101701.81
2022-10-13T03:44:58.201Z,101700.94
2022-10-13T03:47:24.566Z,101681.63
2022-10-13T03:49:50.903Z,101696.56
2022-10-13T03:52:17.606Z,101710.69
2022-10-13T03:54:47.741Z,101663.88
2022-10-13T03:57:27.415Z,101692.25
2022-10-13T03:59:56.071Z,101702.78
2022-10-13T04:02:23.130Z,101698.31
2022-10-13T04:04:50.278Z,101695.72
2022-10-13T04:07:16.607Z,101694.78
2022-10-13T04:09:42.957Z,101701.81
2022-10-13T04:12:09.281Z,101700.94
2022-10-13T04:14:35.601Z,101682.47
2022-10-13T04:17:02.033Z,101679.84
2022-10-13T04:19:28.381Z,101678.09
2022-10-13T04:21:57.169Z,101677.25
2022-10-13T04:24:23.626Z,101661.41
2022-10-13T04:26:50.022Z,101666.75
2022-10-13T04:29:16.446Z,101667.66
2022-10-13T04:31:43.753Z,101673.81
2022-10-13T04:34:11.185Z,101665.03
2022-10-13T04:36:37.863Z,101672.09
2022-10-13T04:39:04.937Z,101671.25
2022-10-13T04:41:32.976Z,101674.78
2022-10-13T04:44:02.143Z,101677.41
2022-10-13T04:46:28.663Z,101682.69
2022-10-13T04:48:55.606Z,101689.75
2022-10-13T04:51:24.506Z,101686.19
2022-10-13T04:53:56.157Z,101690.56
2022-10-13T04:56:22.868Z,101693.19
2022-10-13T04:58:49.207Z,101692.34
2022-10-13T05:01:22.326Z,101694.09
2022-10-13T05:03:57.047Z,101686.16
2022-10-13T05:06:29.436Z,101685.25
2022-10-13T05:08:56.511Z,101692.31
2022-10-13T05:11:24.169Z,101694.03
2022-10-13T05:13:50.558Z,101685.25
2022-10-13T05:16:18.611Z,101676.50
2022-10-13T05:18:45.468Z,101679.16
2022-10-13T05:21:16.384Z,101671.25
2022-10-13T05:23:43.905Z,101680.94
2022-10-13T05:26:12.957Z,101682.69
2022-10-13T05:28:39.844Z,101674.78
2022-10-13T05:31:24.501Z,101678.31
2022-10-13T05:33:52.917Z,101674.75
2022-10-13T05:36:21.781Z,101671.25
2022-10-13T05:38:55.786Z,101665.09
2022-10-13T05:41:23.569Z,101670.38
2022-10-13T05:43:53.246Z,101668.59
2022-10-13T05:46:19.603Z,101672.09
2022-10-13T05:48:45.950Z,101679.97
2022-10-13T05:51:16.517Z,101671.19
2022-10-13T05:53:51.027Z,101672.06
2022-10-13T05:56:23.915Z,101665.00
2022-10-13T05:58:58.830Z,101658.88
2022-10-13T06:01:31.035Z,101657.97
2022-10-13T06:04:04.599Z,101662.38
2022-10-13T06:06:31.799Z,101660.59
2022-10-13T06:08:59.838Z,101656.22
2022-10-13T06:11:26.286Z,101654.44
2022-10-13T06:13:52.718Z,101657.97
2022-10-13T06:16:19.044Z,101663.28
2022-10-13T06:18:45.457Z,101652.72
2022-10-13T06:21:12.472Z,101643.03
2022-10-13T06:23:39.268Z,101636.88
2022-10-13T06:26:07.403Z,101632.47
2022-10-13T06:28:33.806Z,101641.31
2022-10-13T06:31:00.147Z,101632.50
2022-10-13T06:33:26.613Z,101638.69
2022-10-13T06:35:53.205Z,101627.28
2022-10-13T06:38:20.049Z,101637.84
2022-10-13T06:40:46.480Z,101650.19
2022-10-13T06:43:12.887Z,101647.56
2022-10-13T06:45:39.367Z,101650.19
2022-10-13T06:48:08.727Z,101658.09
2022-10-13T06:50:37.284Z,101654.59
2022-10-13T06:53:07.276Z,101659.84
2022-10-13T06:55:33.638Z,101656.34
2022-10-13T06:57:59.976Z,101658.94
2022-10-13T07:00:26.421Z,101656.31
2022-10-13T07:02:52.865Z,101651.91
2022-10-13T07:05:19.578Z,101657.19
2022-10-13T07:07:46.166Z,101654.53
2022-10-13T07:10:12.738Z,101658.03
2022-10-13T07:12:40.953Z,101654.53
2022-10-13T07:15:07.868Z,101658.03
2022-10-13T07:17:35.179Z,101655.41
2022-10-13T07:20:07.113Z,101658.03
2022-10-13T07:22:33.930Z,101658.06
2022-10-13T07:25:00.546Z,101652.78
2022-10-13T07:27:27.920Z,101654.53
2022-10-13T07:29:54.302Z,101658.91
2022-10-13T07:32:20.758Z,101650.13
2022-10-13T07:34:47.510Z,101649.25
2022-10-13T07:37:14.086Z,101647.50
2022-10-13T07:39:40.417Z,101650.19
2022-10-13T07:42:06.742Z,101647.56
2022-10-13T07:44:33.161Z,101640.56
2022-10-13T07:46:59.533Z,101633.50
2022-10-13T07:49:27.964Z,101643.22
2022-10-13T07:51:54.362Z,101639.78
2022-10-13T07:54:23.763Z,101643.34
2022-10-13T07:56:53.710Z,101641.59
2022-10-13T07:59:20.225Z,101634.59
2022-10-13T08:01:46.904Z,101632.00
2022-10-13T08:04:13.477Z,101632.88
2022-10-13T08:09:07.554Z,101647.03
2022-10-13T08:11:33.913Z,101638.22
2022-10-13T08:14:01.543Z,101644.44
2022-10-13T08:16:29.476Z,101645.31
2022-10-13T08:18:57.812Z,101645.34
2022-10-13T08:21:52.825Z,101641.81
2022-10-13T08:24:14.504Z,101648.91
2022-10-13T08:26:41.821Z,101647.19
2022-10-13T08:29:24.269Z,101634.84
2022-10-13T08:31:53.475Z,101630.44
2022-10-13T08:34:20.842Z,101638.44
2022-10-13T08:36:47.451Z,101638.47
2022-10-13T08:39:14.005Z,101630.53
2022-10-13T08:41:45.763Z,101634.97
2022-10-13T08:45:10.421Z,101638.50
2022-10-13T08:47:35.434Z,101635.03
2022-10-13T08:50:06.747Z,101627.97
2022-10-13T08:52:47.086Z,101626.28
2022-10-13T08:55:33.733Z,101619.25
2022-10-13T08:58:01.774Z,101622.78
2022-10-13T09:00:30.229Z,101625.41
2022-10-13T09:03:15.492Z,101627.22
2022-10-13T09:05:52.354Z,101620.13
2022-10-13T09:08:21.038Z,101627.22
2022-10-13T09:10:49.733Z,101622.78
2022-10-13T09:13:16.171Z,101627.22
2022-10-13T09:15:50.332Z,101624.53
2022-10-13T09:18:16.999Z,101619.25
2022-10-13T09:20:43.345Z,101613.97
2022-10-13T09:23:21.228Z,101621.91
2022-10-13T09:25:50.562Z,101619.22
2022-10-13T09:28:19.710Z,101619.25
2022-10-13T09:30:47.742Z,101627.16
2022-10-13T09:33:23.081Z,101623.66
2022-10-13T09:36:13.073Z,101624.53
2022-10-13T09:38:41.491Z,101618.38
2022-10-13T09:41:20.260Z,101628.94
2022-10-13T09:43:46.573Z,101635.13
2022-10-13T09:46:21.726Z,101637.78
2022-10-13T09:48:52.102Z,101627.19
2022-10-13T09:51:35.692Z,101639.56
2022-10-13T09:54:02.561Z,101633.38
2022-10-13T09:56:28.897Z,101632.50
2022-10-13T09:59:31.094Z,101632.50
2022-10-13T10:01:58.563Z,101637.78
2022-10-13T10:04:38.364Z,101621.03
2022-10-13T10:07:13.767Z,101626.31
2022-10-13T10:09:46.327Z,101620.19
2022-10-13T10:12:18.329Z,101623.72
2022-10-13T10:14:44.792Z,101626.34
2022-10-13T10:17:21.909Z,101618.44
2022-10-13T10:20:25.643Z,101618.44
2022-10-13T10:23:10.732Z,101623.72
2022-10-13T10:25:44.770Z,101614.03
2022-10-13T10:28:36.378Z,101610.50
2022-10-13T10:31:36.025Z,101608.72
2022-10-13T10:34:15.479Z,101607.03
2022-10-13T10:36:51.837Z,101610.53
2022-10-13T10:39:31.824Z,101604.34
2022-10-13T10:42:07.001Z,101610.53
2022-10-13T10:44:39.334Z,101613.16
2022-10-13T10:47:15.964Z,101608.75
2022-10-13T10:49:44.274Z,101605.22
2022-10-13T10:52:24.549Z,101603.44
2022-10-13T10:55:01.587Z,101601.66
2022-10-13T10:57:41.358Z,101604.28
2022-10-13T11:00:19.504Z,101597.22
2022-10-13T11:03:02.717Z,101598.97
2022-10-13T11:06:13.917Z,101589.22
2022-10-13T11:08:48.327Z,101593.63
2022-10-13T11:11:24.733Z,101591.81
2022-10-13T11:14:06.332Z,101591.81
2022-10-13T11:16:38.758Z,101588.28
2022-10-13T11:19:25.042Z,101582.13
2022-10-13T11:21:57.146Z,101586.53
2022-10-13T11:24:48.843Z,101587.38
2022-10-13T11:27:15.134Z,101577.66
2022-10-13T11:29:44.616Z,101574.16
2022-10-13T11:32:26.214Z,101574.16
2022-10-13T11:35:04.301Z,101567.09
2022-10-13T11:38:05.626Z,101567.97
2022-10-13T11:40:35.674Z,101570.63
2022-10-13T11:43:42.452Z,101560.03
2022-10-13T11:46:36.370Z,101553.81
2022-10-13T11:49:25.787Z,101552.94
2022-10-13T11:52:13.567Z,101555.56
2022-10-13T11:54:47.450Z,101555.50
2022-10-13T11:57:19.588Z,101544.91
2022-10-13T11:59:47.894Z,101549.28
2022-10-13T12:02:18.934Z,101547.53
2022-10-13T12:05:04.084Z,101545.75
2022-10-13T12:07:41.571Z,101546.59
2022-10-13T12:10:17.845Z,101543.03
2022-10-13T12:12:48.846Z,101542.16
2022-10-13T12:15:44.472Z,101542.13
2022-10-13T12:18:27.396Z,101526.25
2022-10-13T12:21:20.012Z,101535.09
2022-10-13T12:23:48.046Z,101539.50
2022-10-13T12:26:20.494Z,101531.59
2022-10-13T12:29:03.520Z,101519.22
2022-10-13T12:31:40.636Z,101515.69
2022-10-13T12:34:18.293Z,101522.78
2022-10-13T12:36:47.626Z,101514.81
2022-10-13T12:39:16.837Z,101515.72
2022-10-13T12:41:45.900Z,101512.16
2022-10-13T12:44:17.037Z,101509.53
2022-10-13T12:46:56.097Z,101508.59
2022-10-13T12:49:24.549Z,101516.63
2022-10-13T12:51:58.500Z,101512.16
2022-10-13T12:54:31.605Z,101511.34
2022-10-13T12:57:00.538Z,101510.50
2022-10-13T12:59:29.003Z,101509.63
2022-10-13T13:02:00.979Z,101514.13
2022-10-13T13:04:47.591Z,101518.56
2022-10-13T13:07:40.420Z,101508.00
2022-10-13T13:10:17.014Z,101508.94
2022-10-13T13:12:44.204Z,101509.84
2022-10-13T13:15:25.481Z,101503.66
2022-10-13T13:17:58.404Z,101503.69
2022-10-13T13:20:32.177Z,101506.34
2022-10-13T13:22:59.337Z,101509.88
2022-10-13T13:25:27.637Z,101503.69
2022-10-13T13:27:54.124Z,101503.69
2022-10-13T13:30:22.430Z,101501.94
2022-10-13T13:32:49.261Z,101495.75
2022-10-13T13:35:15.885Z,101495.75
2022-10-13T13:37:50.913Z,101512.53
2022-10-13T13:40:20.321Z,101509.00
2022-10-13T13:42:46.666Z,101509.00
2022-10-13T13:45:17.406Z,101511.63
2022-10-13T13:47:44.859Z,101505.47
2022-10-13T13:50:22.080Z,101512.53
2022-10-13T13:52:48.455Z,101511.63
2022-10-13T13:55:15.161Z,101508.09
2022-10-13T13:57:42.768Z,101513.41
2022-10-13T14:00:11.674Z,101519.59
2022-10-13T14:02:38.535Z,101507.25
2022-10-13T14:05:05.736Z,101506.38
2022-10-13T14:07:33.093Z,101501.09
2022-10-13T14:10:01.988Z,101504.63
2022-10-13T14:12:30.652Z,101505.50
2022-10-13T14:14:58.370Z,101501.06
2022-10-13T14:17:28.481Z,101490.50
2022-10-13T14:19:55.044Z,101492.25
2022-10-13T14:22:22.435Z,101494.03
2022-10-13T14:24:49.055Z,101495.81
2022-10-13T14:27:15.396Z,101487.84
2022-10-13T14:29:41.726Z,101488.72
2022-10-13T14:32:08.114Z,101490.47
2022-10-13T14:34:34.469Z,101487.84
2022-10-13T14:37:00.826Z,101482.56
2022-10-13T14:39:27.141Z,101477.28
2022-10-13T14:41:53.478Z,101468.47
2022-10-13T14:44:19.821Z,101480.81
2022-10-13T14:46:46.225Z,101465.81
2022-10-13T14:49:12.732Z,101470.25
2022-10-13T14:51:39.210Z,101474.63
2022-10-13T14:54:06.875Z,101473.75
2022-10-13T14:56:33.981Z,101477.31
2022-10-13T14:59:02.562Z,101472.00
2022-10-13T15:01:29.209Z,101474.63
2022-10-13T15:03:56.117Z,101467.59
2022-10-13T15:06:25.495Z,101478.16
2022-10-13T15:08:52.561Z,101465.81
2022-10-13T15:11:22.209Z,101461.44
2022-10-13T15:13:48.902Z,101454.34
2022-10-13T15:16:21.597Z,101454.34
2022-10-13T15:18:48.534Z,101460.56
2022-10-13T15:21:18.098Z,101458.78
2022-10-13T15:23:45.002Z,101455.25
2022-10-13T15:26:13.156Z,101460.53
2022-10-13T15:28:43.427Z,101455.22
2022-10-13T15:31:10.589Z,101458.75
2022-10-13T15:33:37.147Z,101455.25
2022-10-13T15:36:04.018Z,101465.84
2022-10-13T15:38:30.765Z,101466.72
2022-10-13T15:41:01.031Z,101458.78
2022-10-13T15:43:28.163Z,101457.91
2022-10-13T15:45:57.306Z,101464.94
2022-10-13T15:48:23.767Z,101459.66
2022-10-13T15:50:50.117Z,101467.59
2022-10-13T15:53:16.632Z,101454.38
2022-10-13T15:55:43.151Z,101463.19
2022-10-13T15:58:13.531Z,101468.50
2022-10-13T16:00:41.135Z,101463.16
2022-10-13T16:03:10.721Z,101461.41
2022-10-13T16:05:40.407Z,101462.31
2022-10-13T16:08:06.754Z,101454.34
2022-10-13T16:10:33.085Z,101456.13
2022-10-13T16:12:59.457Z,101453.47
2022-10-13T16:15:25.944Z,101446.41
2022-10-13T16:17:52.673Z,101446.41
2022-10-13T16:20:19.141Z,101453.47
2022-10-13T16:22:45.539Z,101457.00
2022-10-13T16:25:12.008Z,101451.72
2022-10-13T16:27:41.784Z,101449.06
2022-10-13T16:30:11.478Z,101449.94
2022-10-13T16:32:39.482Z,101453.47
2022-10-13T16:35:06.914Z,101448.16
2022-10-13T16:37:33.429Z,101455.25
2022-10-13T16:39:59.854Z,101458.75
2022-10-13T16:42:28.376Z,101462.28
2022-10-13T16:44:54.756Z,101462.25
2022-10-13T16:47:21.583Z,101448.16
2022-10-13T16:49:51.155Z,101461.41
2022-10-13T16:52:17.732Z,101458.75
2022-10-13T16:54:44.122Z,101465.81
2022-10-13T16:57:10.573Z,101466.69
2022-10-13T16:59:36.935Z,101464.94
2022-10-13T17:02:03.273Z,101468.44
2022-10-13T17:04:30.798Z,101478.16
2022-10-13T17:06:59.997Z,101468.44
2022-10-13T17:09:26.719Z,101484.28
2022-10-13T17:11:53.089Z,101485.19
2022-10-13T17:14:19.994Z,101481.66
2022-10-13T17:16:48.961Z,101484.28
2022-10-13T17:19:15.280Z,101480.78
2022-10-13T17:21:43.320Z,101486.94
2022-10-13T17:24:09.763Z,101490.44
2022-10-13T17:26:36.525Z,101483.41
2022-10-13T17:29:03.146Z,101494.84
2022-10-13T17:31:29.952Z,101490.44
2022-10-13T17:33:56.280Z,101501.91
2022-10-13T17:36:25.773Z,101504.53
2022-10-13T17:38:53.609Z,101513.38
2022-10-13T17:41:20.545Z,101513.38
2022-10-13T17:43:47.762Z,101515.13
2022-10-13T17:46:39.296Z,101516.88
2022-10-13T17:49:09.376Z,101521.28
2022-10-13T17:51:35.748Z,101523.94
2022-10-13T17:54:02.327Z,101527.47
2022-10-13T17:56:29.247Z,101533.66
2022-10-13T17:58:56.647Z,101533.63
2022-10-13T18:01:23.055Z,101530.09
2022-10-13T18:03:54.719Z,101526.59
2022-10-13T18:06:22.238Z,101534.50
2022-10-13T18:08:50.633Z,101537.16
2022-10-13T18:11:19.458Z,101535.38
2022-10-13T18:13:46.764Z,101531.81
2022-10-13T18:16:18.710Z,101532.72
2022-10-13T18:18:45.664Z,101540.66
2022-10-13T18:21:14.703Z,101539.75
2022-10-13T18:23:41.880Z,101531.84
2022-10-13T18:26:16.457Z,101545.94
2022-10-13T18:28:44.243Z,101540.63
2022-10-13T18:31:12.278Z,101545.94
2022-10-13T18:33:39.293Z,101554.75
2022-10-13T18:36:42.265Z,101551.19
2022-10-13T18:39:16.102Z,101558.19
2022-10-13T18:41:43.018Z,101559.06
2022-10-13T18:44:09.788Z,101559.91
2022-10-13T18:46:37.941Z,101560.78
2022-10-13T18:49:05.453Z,101569.56
2022-10-13T18:51:36.200Z,101567.81
2022-10-13T18:54:03.870Z,101574.81
2022-10-13T18:56:31.368Z,101569.47
2022-10-13T18:59:00.262Z,101579.16
2022-10-13T19:01:29.791Z,101581.78
2022-10-13T19:03:56.265Z,101575.59
2022-10-13T19:06:26.688Z,101579.91
2022-10-13T19:09:00.511Z,101579.03
2022-10-13T19:11:27.982Z,101569.34
2022-10-13T19:13:54.686Z,101566.66
2022-10-13T19:16:23.081Z,101564.94
2022-10-13T19:18:50.213Z,101563.16
2022-10-13T19:21:17.630Z,101567.59
2022-10-13T19:23:44.428Z,101572.84
2022-10-13T19:26:23.911Z,101566.69
2022-10-13T19:28:55.162Z,101566.72
2022-10-13T19:31:23.630Z,101565.78
2022-10-13T19:33:50.877Z,101571.06
2022-10-13T19:36:26.789Z,101571.88
2022-10-13T19:38:54.406Z,101567.44
2022-10-13T19:41:21.328Z,101568.34
2022-10-13T19:43:47.929Z,101580.63
2022-10-13T19:46:14.618Z,101573.56
2022-10-13T19:48:41.335Z,101580.63
2022-10-13T19:51:09.093Z,101571.84
2022-10-13T19:53:36.786Z,101579.75
2022-10-13T19:56:06.595Z,101584.13
2022-10-13T19:58:40.759Z,101580.56
2022-10-13T20:01:08.436Z,101577.94
2022-10-13T20:03:34.897Z,101583.22
2022-10-13T20:06:05.689Z,101586.75
2022-10-13T20:08:38.317Z,101584.09
2022-10-13T20:11:13.005Z,101590.22
2022-10-13T20:13:39.351Z,101589.38
2022-10-13T20:16:08.073Z,101590.22
2022-10-13T20:18:35.500Z,101591.09
2022-10-13T20:21:06.748Z,101599.91
2022-10-13T20:23:33.477Z,101609.59
2022-10-13T20:26:09.586Z,101599.88
2022-10-13T20:28:42.731Z,101603.41
2022-10-13T20:31:11.025Z,101597.22
2022-10-13T20:33:37.387Z,101595.44
2022-10-13T20:36:11.141Z,101602.44
2022-10-13T20:38:37.866Z,101606.00
2022-10-13T20:41:19.513Z,101595.44
2022-10-13T20:43:46.889Z,101597.16
2022-10-13T20:46:13.770Z,101601.53
2022-10-13T20:49:08.850Z,101604.16
2022-10-13T20:51:31.023Z,101603.22
2022-10-13T20:53:57.423Z,101609.34
2022-10-13T20:56:25.680Z,101611.94
2022-10-13T20:58:52.853Z,101595.91
2022-10-13T21:01:21.085Z,101605.53
2022-10-13T21:03:51.949Z,101609.94
2022-10-13T21:06:18.292Z,101609.91
2022-10-13T21:08:46.329Z,101609.91
2022-10-13T21:11:14.483Z,101616.91
2022-10-13T21:13:41.881Z,101615.13
2022-10-13T21:16:14.870Z,101620.38
2022-10-13T21:18:45.720Z,101626.53
2022-10-13T21:21:12.104Z,101616.88
2022-10-13T21:23:38.573Z,101606.28
2022-10-13T21:26:07.385Z,101617.72
2022-10-13T21:28:35.683Z,101607.13
2022-10-13T21:31:10.672Z,101606.25
2022-10-13T21:33:41.386Z,101597.50
2022-10-13T21:36:28.339Z,101594.81
2022-10-13T21:38:59.110Z,101590.38
2022-10-13T21:41:26.525Z,101585.91
2022-10-13T21:43:55.560Z,101597.31
2022-10-13T21:46:28.053Z,101592.84
2022-10-13T21:48:57.363Z,101585.88
2022-10-13T21:51:32.703Z,101589.41
2022-10-13T21:54:10.370Z,101592.03
2022-10-13T21:56:37.630Z,101589.41
2022-10-13T21:59:04.668Z,101576.19
2022-10-13T22:01:31.111Z,101580.59
2022-10-13T22:04:00.638Z,101576.16
2022-10-13T22:06:28.589Z,101573.53
2022-10-13T22:08:56.994Z,101570.91
2022-10-13T22:11:26.175Z,101564.72
2022-10-13T22:13:52.634Z,101571.75
2022-10-13T22:16:22.273Z,101563.78
2022-10-13T22:18:51.737Z,101573.38
2022-10-13T22:21:22.744Z,101568.03
2022-10-13T22:23:49.290Z,101563.63
2022-10-13T22:26:17.462Z,101563.63
2022-10-13T22:28:44.459Z,101560.94
2022-10-13T22:31:12.930Z,101568.81
2022-10-13T22:33:40.643Z,101565.31
2022-10-13T22:36:14.333Z,101562.69
2022-10-13T22:38:40.861Z,101563.56
2022-10-13T22:41:08.221Z,101562.69
2022-10-13T22:43:37.754Z,101554.78
2022-10-13T22:46:04.785Z,101556.47
2022-10-13T22:48:35.817Z,101553.81
2022-10-13T22:51:05.567Z,101560.88
2022-10-13T22:53:33.317Z,101566.16
2022-10-13T22:56:00.099Z,101570.50
2022-10-13T22:58:26.667Z,101560.00
2022-10-13T23:00:52.971Z,101562.59
2022-10-13T23:03:19.518Z,101557.31
2022-10-13T23:05:48.025Z,101560.75
2022-10-13T23:08:14.666Z,101553.72
2022-10-13T23:10:41.097Z,101554.63
2022-10-13T23:13:07.472Z,101559.00
2022-10-13T23:15:33.873Z,101556.38
2022-10-13T23:18:00.354Z,101549.31
2022-10-13T23:20:26.711Z,101545.75
2022-10-13T23:22:56.211Z,101549.28
2022-10-13T23:25:22.671Z,101542.19
2022-10-13T23:27:49.101Z,101549.13
2022-10-13T23:30:15.485Z,101534.16
2022-10-13T23:32:41.843Z,101536.84
2022-10-13T23:35:08.511Z,101523.63
2022-10-13T23:37:34.859Z,101522.72
2022-10-13T23:40:01.299Z,101520.06
2022-10-13T23:42:33.394Z,101521.00
2022-10-13T23:44:59.638Z,101514.88
2022-10-13T23:47:28.782Z,101520.94
2022-10-13T23:49:55.150Z,101524.38
2022-10-13T23:52:21.511Z,101519.03
2022-10-13T23:54:47.822Z,101529.50
2022-10-13T23:57:14.232Z,101530.28
2022-10-13T23:59:40.611Z,101528.31
